Time;durP1;ratioP1;P1;durP2;ratioP2;P2;SDS_P1;SDS_P2;PMS_P1;PMS_P2;Temp;Humidity;BMP_temperature;BMP_pressure;BME280_temperature;BME280_humidity;BME280_pressure;Samples;Min_cycle;Max_cycle;Signal;HPM_P1;HPM_P2
2023/03/08 00:01:11;;;;;;;;;;;;;;;25.91;26.49;99947.75;5046451;28;1052;-28
2023/03/08 00:03:36;;;;;;;;;;;;;;;25.86;26.36;99944.78;5059563;28;1087;-26
2023/03/08 00:06:05;;;;;;;;;;;;;;;25.79;26.25;99947.44;5058883;28;1036;-26
2023/03/08 00:08:31;;;;;;;;;;;;;;;25.86;26.33;99949.38;5045818;28;1223;-28
2023/03/08 00:10:56;;;;;;;;;;;;;;;25.93;26.34;99947.56;5046211;28;1052;-25
2023/03/08 00:13:22;;;;;;;;;;;;;;;25.89;26.34;99951.69;5059224;28;942;-27
2023/03/08 00:15:48;;;;;;;;;;;;;;;25.91;26.22;99946.91;5045678;28;1043;-26
2023/03/08 00:18:13;;;;;;;;;;;;;;;25.91;26.19;99947.75;5058661;28;1911;-27
2023/03/08 00:20:39;;;;;;;;;;;;;;;25.84;26.19;99948.72;5045576;28;1158;-28
2023/03/08 00:23:04;;;;;;;;;;;;;;;25.87;26.11;99951.88;5058913;28;1040;-27
2023/03/08 00:25:30;;;;;;;;;;;;;;;25.92;26.34;99945.88;5059127;28;1190;-28
2023/03/08 00:27:55;;;;;;;;;;;;;;;25.93;26.27;99939.47;5059037;28;1087;-26
2023/03/08 00:30:21;;;;;;;;;;;;;;;25.96;26.02;99946.34;5058236;28;1215;-27
2023/03/08 00:32:47;;;;;;;;;;;;;;;25.89;26.28;99944.41;5027898;28;1200;-29
2023/03/08 00:35:12;;;;;;;;;;;;;;;25.88;26.40;99937.34;5052143;28;1194;-27
2023/03/08 00:37:38;;;;;;;;;;;;;;;25.80;26.35;99932.94;5051801;28;1051;-26
2023/03/08 00:40:04;;;;;;;;;;;;;;;25.87;26.25;99938.41;5058140;28;1910;-26
2023/03/08 00:42:33;;;;;;;;;;;;;;;25.85;26.45;99926.13;5040594;28;1095;-27
2023/03/08 00:44:59;;;;;;;;;;;;;;;25.88;26.35;99928.44;5038636;28;1123;-26
2023/03/08 00:47:24;;;;;;;;;;;;;;;25.85;26.50;99921.59;5033881;28;1123;-26
2023/03/08 00:49:50;;;;;;;;;;;;;;;25.87;26.37;99926.78;5058620;28;1230;-26
2023/03/08 00:52:16;;;;;;;;;;;;;;;25.88;26.26;99931.13;5058369;28;1124;-27
2023/03/08 00:54:42;;;;;;;;;;;;;;;25.87;26.48;99927.63;5040375;28;1128;-27
2023/03/08 00:57:08;;;;;;;;;;;;;;;25.89;26.35;99925.53;5027426;28;1036;-28
2023/03/08 00:59:34;;;;;;;;;;;;;;;25.90;26.14;99919.16;5057590;28;1996;-27
2023/03/08 01:01:59;;;;;;;;;;;;;;;25.87;26.23;99924.09;5058459;28;1009;-26
2023/03/08 01:04:25;;;;;;;;;;;;;;;25.90;26.45;99932.63;5052363;28;1256;-26
2023/03/08 01:06:51;;;;;;;;;;;;;;;25.88;26.40;99926.59;5032745;28;1028;-27
2023/03/08 01:09:16;;;;;;;;;;;;;;;25.89;26.25;99928.25;5057992;28;1195;-27
2023/03/08 01:11:43;;;;;;;;;;;;;;;25.85;26.62;99928.81;5058262;28;1100;-28
2023/03/08 01:14:08;;;;;;;;;;;;;;;25.89;26.30;99928.25;5058140;28;1193;-27
2023/03/08 01:16:34;;;;;;;;;;;;;;;25.89;26.52;99936.31;5040098;28;1227;-28
2023/03/08 01:19:01;;;;;;;;;;;;;;;25.89;26.29;99928.25;5039645;28;1965;-28
2023/03/08 01:21:27;;;;;;;;;;;;;;;25.87;26.12;99924.94;5040087;28;1232;-25
2023/03/08 01:23:54;;;;;;;;;;;;;;;25.89;26.41;99927.44;5039828;28;1261;-26
2023/03/08 01:26:20;;;;;;;;;;;;;;;25.89;26.17;99922.84;5058350;28;1124;-28
2023/03/08 01:28:46;;;;;;;;;;;;;;;25.84;26.10;99922.59;5033560;28;982;-29
2023/03/08 01:31:12;;;;;;;;;;;;;;;25.89;26.48;99924.72;5050659;28;1033;-29
2023/03/08 01:33:39;;;;;;;;;;;;;;;25.89;26.12;99922.84;5026778;28;1073;-27
2023/03/08 01:36:05;;;;;;;;;;;;;;;25.84;26.20;99916.41;5057790;28;1016;-28
2023/03/08 01:38:31;;;;;;;;;;;;;;;25.87;26.35;99913.31;5039509;28;1986;-26
2023/03/08 01:40:58;;;;;;;;;;;;;;;25.89;26.24;99916.66;5039497;28;1301;-26
2023/03/08 01:43:25;;;;;;;;;;;;;;;25.87;26.41;99921.38;5049470;28;833;-27
2023/03/08 01:46:00;;;;;;;;;;;;;;;25.87;26.37;99922.22;5019346;28;1362;-28
2023/03/08 01:48:28;;;;;;;;;;;;;;;25.86;26.32;99923.25;5019955;28;1436;-27
2023/03/08 01:51:05;;;;;;;;;;;;;;;25.86;26.43;99917.84;5035896;28;1136;-26
2023/03/08 01:53:31;;;;;;;;;;;;;;;25.84;26.20;99916.41;5022951;28;1376;-26
2023/03/08 01:55:56;;;;;;;;;;;;;;;25.85;26.49;99918.06;5053976;28;1032;-27
2023/03/08 01:58:23;;;;;;;;;;;;;;;25.87;26.36;99908.75;5009656;28;1914;-27
2023/03/08 02:00:49;;;;;;;;;;;;;;;25.85;26.53;99909.97;5019253;28;1118;-27
2023/03/08 02:03:14;;;;;;;;;;;;;;;25.83;26.33;99910.16;5056967;28;1036;-28
2023/03/08 02:05:40;;;;;;;;;;;;;;;25.83;26.10;99906.63;5039378;28;1168;-27
2023/03/08 02:08:19;;;;;;;;;;;;;;;25.82;26.39;99913.06;5027249;28;1222;-28
2023/03/08 02:10:45;;;;;;;;;;;;;;;25.86;26.25;99920.53;5037375;28;1272;-27
2023/03/08 02:13:10;;;;;;;;;;;;;;;25.84;26.41;99927.16;5022804;28;1111;-26
2023/03/08 02:15:39;;;;;;;;;;;;;;;25.85;26.41;99928.81;5023184;28;1341;-27
2023/03/08 02:18:05;;;;;;;;;;;;;;;25.86;26.19;99941.28;5039084;28;1128;-27
2023/03/08 02:20:32;;;;;;;;;;;;;;;25.83;26.26;99938.97;5032942;28;1967;-26
2023/03/08 02:23:08;;;;;;;;;;;;;;;25.82;26.56;99935.44;5032323;28;1115;-26
2023/03/08 02:25:34;;;;;;;;;;;;;;;25.76;26.57;99931.66;5056897;28;1175;-27
2023/03/08 02:28:00;;;;;;;;;;;;;;;25.78;26.29;99939.53;5056767;28;1225;-28
2023/03/08 02:30:26;;;;;;;;;;;;;;;25.66;26.37;99934.69;5038677;28;1124;-27
2023/03/08 02:32:52;;;;;;;;;;;;;;;25.74;26.41;99930.19;5024585;28;1308;-26
2023/03/08 02:35:18;;;;;;;;;;;;;;;25.74;26.71;99940.97;5056878;28;1016;-26
2023/03/08 02:37:43;;;;;;;;;;;;;;;25.70;26.45;99935.13;5056623;28;1137;-27
2023/03/08 02:40:10;;;;;;;;;;;;;;;25.73;26.55;99937.44;5038892;28;1974;-26
2023/03/08 02:42:37;;;;;;;;;;;;;;;25.69;26.63;99936.16;5056619;28;1075;-26
2023/03/08 02:45:02;;;;;;;;;;;;;;;25.67;26.49;99932.81;5031208;28;1076;-27
2023/03/08 02:47:28;;;;;;;;;;;;;;;25.71;26.64;99931.41;5032392;28;1148;-28
2023/03/08 02:49:54;;;;;;;;;;;;;;;25.66;26.54;99931.16;5056524;28;1569;-28
2023/03/08 02:52:19;;;;;;;;;;;;;;;25.70;26.49;99931.59;5056496;28;1087;-29
2023/03/08 02:54:45;;;;;;;;;;;;;;;25.72;26.48;99927.69;5055900;28;1140;-25
2023/03/08 02:57:10;;;;;;;;;;;;;;;25.73;26.47;99932.03;5043702;28;857;-28
2023/03/08 02:59:37;;;;;;;;;;;;;;;25.73;26.51;99931.22;5037613;28;1992;-26
2023/03/08 03:02:02;;;;;;;;;;;;;;;25.73;26.73;99934.75;5038384;28;1233;-27
2023/03/08 03:04:29;;;;;;;;;;;;;;;25.71;26.57;99928.72;5055754;28;1128;-26
2023/03/08 03:06:54;;;;;;;;;;;;;;;25.76;26.45;99931.66;5038649;28;1305;-27
2023/03/08 03:09:20;;;;;;;;;;;;;;;25.71;26.50;99927.91;5031581;28;1270;-27
2023/03/08 03:11:46;;;;;;;;;;;;;;;25.65;26.47;99924.94;5031796;28;1152;-28
2023/03/08 03:14:11;;;;;;;;;;;;;;;25.64;26.90;99923.25;5038883;28;1264;-25
2023/03/08 03:16:40;;;;;;;;;;;;;;;25.61;26.92;99929.00;5038228;28;1158;-26
2023/03/08 03:19:08;;;;;;;;;;;;;;;25.63;26.80;99935.06;5038374;28;1902;-26
2023/03/08 03:21:33;;;;;;;;;;;;;;;25.66;26.55;99940.06;5024292;28;998;-25
2023/03/08 03:23:59;;;;;;;;;;;;;;;25.70;26.57;99940.53;5018685;28;1175;-27
2023/03/08 03:26:35;;;;;;;;;;;;;;;25.69;26.88;99941.56;5033335;28;1120;-25
2023/03/08 03:29:00;;;;;;;;;;;;;;;25.64;26.78;99949.38;5056187;28;1052;-25
2023/03/08 03:31:30;;;;;;;;;;;;;;;25.62;26.80;99946.84;5037571;28;1178;-26
2023/03/08 03:33:56;;;;;;;;;;;;;;;25.58;26.65;99950.09;5037858;28;1100;-28
2023/03/08 03:36:24;;;;;;;;;;;;;;;25.58;26.89;99956.31;5037563;28;1112;-25
2023/03/08 03:38:50;;;;;;;;;;;;;;;25.62;26.70;99956.78;5037916;28;1981;-27
2023/03/08 03:41:17;;;;;;;;;;;;;;;25.59;26.77;99960.66;5035374;28;1258;-27
2023/03/08 03:43:44;;;;;;;;;;;;;;;25.59;26.82;99949.91;5027574;28;2094;-26
2023/03/08 03:46:10;;;;;;;;;;;;;;;25.58;27.04;99953.63;5038112;28;1143;-26
2023/03/08 03:48:37;;;;;;;;;;;;;;;25.59;26.79;99954.47;5028924;28;1285;-27
2023/03/08 03:51:03;;;;;;;;;;;;;;;25.60;26.83;99961.53;5020563;28;1164;-26
2023/03/08 03:53:30;;;;;;;;;;;;;;;25.60;26.89;99958.81;5038110;28;1171;-26
2023/03/08 03:55:55;;;;;;;;;;;;;;;25.56;27.02;99959.22;5034612;28;1127;-29
2023/03/08 03:58:21;;;;;;;;;;;;;;;25.62;26.70;99962.16;5001105;28;2038;-28
2023/03/08 04:00:48;;;;;;;;;;;;;;;25.63;26.72;99955.78;5033578;28;1254;-25
2023/03/08 04:03:22;;;;;;;;;;;;;;;25.00;23.55;99949.91;5038353;28;1507;-25
2023/03/08 04:05:47;;;;;;;;;;;;;;;25.13;26.08;99951.06;5042122;28;1017;-26
2023/03/08 04:08:14;;;;;;;;;;;;;;;25.42;25.96;99952.03;5041308;28;1306;-25
2023/03/08 04:10:40;;;;;;;;;;;;;;;25.55;26.14;99954.88;5028473;28;1154;-26
2023/03/08 04:13:07;;;;;;;;;;;;;;;25.62;26.03;99954.94;5040943;28;1454;-26
2023/03/08 04:15:33;;;;;;;;;;;;;;;25.65;26.29;99945.66;5058929;28;1008;-25
2023/03/08 04:18:02;;;;;;;;;;;;;;;25.65;26.17;99959.13;5041225;28;1121;-25
2023/03/08 04:20:30;;;;;;;;;;;;;;;25.66;26.16;99948.16;5036145;28;1914;-27
2023/03/08 04:22:58;;;;;;;;;;;;;;;25.65;26.36;99954.56;5032535;28;1244;-25
2023/03/08 04:25:31;;;;;;;;;;;;;;;25.67;26.42;99949.81;5041161;28;1191;-26
2023/03/08 04:27:59;;;;;;;;;;;;;;;25.69;26.49;99952.34;5041022;28;1246;-26
2023/03/08 04:30:25;;;;;;;;;;;;;;;25.69;26.48;99960.41;5040716;28;1305;-28
2023/03/08 04:32:52;;;;;;;;;;;;;;;25.70;26.64;99961.22;5040489;28;1217;-26
2023/03/08 04:35:21;;;;;;;;;;;;;;;25.69;26.53;99949.63;5040468;28;1357;-27
2023/03/08 04:37:51;;;;;;;;;;;;;;;25.71;26.70;99952.94;5041015;28;1289;-27
2023/03/08 04:40:19;;;;;;;;;;;;;;;25.73;26.57;99952.75;5025155;28;1910;-26
2023/03/08 04:42:52;;;;;;;;;;;;;;;25.68;26.59;99953.34;5058758;28;1120;-26
2023/03/08 04:45:23;;;;;;;;;;;;;;;24.40;24.75;99949.91;5049413;28;838;-25
2023/03/08 04:47:50;;;;;;;;;;;;;;;23.38;25.14;99944.63;5023434;28;1164;-26
2023/03/08 04:50:16;;;;;;;;;;;;;;;23.19;25.15;99944.88;5040481;28;1127;-24
2023/03/08 04:52:42;;;;;;;;;;;;;;;23.02;25.05;99949.53;5040664;28;1151;-24
2023/03/08 04:55:07;;;;;;;;;;;;;;;23.14;24.99;99949.13;5058786;28;1060;-23
2023/03/08 04:57:34;;;;;;;;;;;;;;;23.42;24.69;99952.16;5040647;28;1305;-24
2023/03/08 05:00:00;;;;;;;;;;;;;;;23.57;24.13;99954.09;5040379;28;1955;-25
2023/03/08 05:02:26;;;;;;;;;;;;;;;23.40;25.20;99948.84;5040552;28;1107;-24
2023/03/08 05:04:51;;;;;;;;;;;;;;;24.04;24.95;99954.09;5024099;28;1143;-24
2023/03/08 05:07:17;;;;;;;;;;;;;;;24.21;24.01;99958.31;5058365;28;1080;-24
2023/03/08 05:09:43;;;;;;;;;;;;;;;24.33;23.54;99963.22;5030486;28;1136;-25
2023/03/08 05:12:09;;;;;;;;;;;;;;;24.47;23.59;99958.91;5036150;28;1401;-25
2023/03/08 05:14:54;;;;;;;;;;;;;;;24.52;23.10;99969.09;5040210;28;1306;-26
2023/03/08 05:17:20;;;;;;;;;;;;;;;24.56;22.97;99978.44;5040448;28;1156;-25
2023/03/08 05:19:46;;;;;;;;;;;;;;;24.66;23.24;99973.63;5039954;28;1922;-25
2023/03/08 05:22:16;;;;;;;;;;;;;;;24.85;23.34;99989.41;5051864;28;1144;-27
2023/03/08 05:24:47;;;;;;;;;;;;;;;24.13;22.84;99981.69;5033395;28;1200;-24
2023/03/08 05:27:13;;;;;;;;;;;;;;;23.60;23.55;99983.28;5035796;28;1249;-24
2023/03/08 05:29:39;;;;;;;;;;;;;;;23.34;23.64;99987.91;5030769;28;1143;-24
2023/03/08 05:32:05;;;;;;;;;;;;;;;23.28;23.94;99987.78;5026478;28;1233;-25
2023/03/08 05:34:32;;;;;;;;;;;;;;;24.08;23.73;99987.63;5028613;28;1097;-24
2023/03/08 05:37:00;;;;;;;;;;;;;;;24.69;23.57;99993.97;5055330;28;1060;-25
2023/03/08 05:39:27;;;;;;;;;;;;;;;24.94;23.97;100001.78;5039532;28;1983;-25
2023/03/08 05:42:01;;;;;;;;;;;;;;;24.98;24.04;99996.84;5051930;28;1123;-26
2023/03/08 05:44:35;;;;;;;;;;;;;;;24.94;24.23;99999.91;5032616;28;1223;-26
2023/03/08 05:47:01;;;;;;;;;;;;;;;24.89;24.49;100001.47;5029336;28;1298;-25
2023/03/08 05:49:27;;;;;;;;;;;;;;;24.86;24.93;99997.28;5038929;28;2375;-26
2023/03/08 05:51:53;;;;;;;;;;;;;;;24.94;24.83;100001.78;5039498;28;1185;-25
2023/03/08 05:54:21;;;;;;;;;;;;;;;24.99;24.86;100001.22;5039350;28;1143;-25
2023/03/08 05:56:49;;;;;;;;;;;;;;;25.05;24.91;99995.09;5038734;28;1254;-27
2023/03/08 05:59:25;;;;;;;;;;;;;;;25.06;25.06;99997.59;5043243;28;1921;-25
2023/03/08 06:01:52;;;;;;;;;;;;;;;25.03;25.22;99997.13;5039353;28;1291;-25
2023/03/08 06:04:31;;;;;;;;;;;;;;;24.98;25.35;100002.22;5057312;28;1095;-27
2023/03/08 06:06:57;;;;;;;;;;;;;;;24.93;25.31;100010.84;5039398;28;1357;-25
2023/03/08 06:09:28;;;;;;;;;;;;;;;24.86;25.66;100004.53;5031287;28;1194;-26
2023/03/08 06:11:54;;;;;;;;;;;;;;;24.96;25.77;100002.41;5025715;28;1199;-25
2023/03/08 06:14:20;;;;;;;;;;;;;;;24.96;25.61;100005.09;5056914;28;1055;-27
2023/03/08 06:16:47;;;;;;;;;;;;;;;25.04;25.73;100006.88;5025682;28;1120;-26
2023/03/08 06:19:15;;;;;;;;;;;;;;;25.06;26.01;100002.13;5056729;28;1905;-25
2023/03/08 06:21:41;;;;;;;;;;;;;;;25.09;25.92;100003.63;5031527;28;1172;-24
2023/03/08 06:24:07;;;;;;;;;;;;;;;25.15;26.04;100011.78;5032392;28;1374;-27
2023/03/08 06:26:32;;;;;;;;;;;;;;;25.19;25.84;100004.16;5038432;28;1117;-24
2023/03/08 06:28:58;;;;;;;;;;;;;;;25.18;25.93;100013.25;5038039;28;1044;-23
2023/03/08 06:31:27;;;;;;;;;;;;;;;25.27;25.99;100022.06;5026255;28;1373;-25
2023/03/08 06:33:53;;;;;;;;;;;;;;;25.28;25.99;100027.25;5052767;28;964;-25
2023/03/08 06:36:22;;;;;;;;;;;;;;;25.35;26.03;100024.66;5056807;28;1048;-25
2023/03/08 06:38:49;;;;;;;;;;;;;;;25.33;25.96;100028.53;5056551;28;1984;-29
2023/03/08 06:41:15;;;;;;;;;;;;;;;25.42;26.00;100030.91;5042611;28;1160;-26
2023/03/08 06:43:41;;;;;;;;;;;;;;;25.55;26.15;100035.66;5043052;28;1163;-27
2023/03/08 06:46:07;;;;;;;;;;;;;;;25.47;26.13;100030.38;5048511;28;874;-27
2023/03/08 06:48:33;;;;;;;;;;;;;;;25.39;26.31;100031.31;5027915;28;1100;-26
2023/03/08 06:50:59;;;;;;;;;;;;;;;25.38;26.38;100036.88;5038658;28;1166;-28
2023/03/08 06:53:25;;;;;;;;;;;;;;;25.49;25.93;100041.78;5038649;28;1122;-26
2023/03/08 06:56:01;;;;;;;;;;;;;;;25.56;25.79;100033.78;5022389;28;1591;-26
2023/03/08 06:58:29;;;;;;;;;;;;;;;25.73;25.97;100037.09;5030624;28;1918;-28
2023/03/08 07:00:54;;;;;;;;;;;;;;;25.76;25.98;100041.25;5056180;28;1067;-28
2023/03/08 07:03:20;;;;;;;;;;;;;;;25.79;25.68;100044.41;5056128;28;1167;-26
2023/03/08 07:05:45;;;;;;;;;;;;;;;25.83;25.55;100044.88;5056384;28;1095;-25
2023/03/08 07:08:11;;;;;;;;;;;;;;;25.80;25.74;100045.25;5056315;28;1142;-26
2023/03/08 07:10:37;;;;;;;;;;;;;;;25.75;26.11;100048.53;5048950;28;846;-28
2023/03/08 07:13:02;;;;;;;;;;;;;;;25.86;25.93;100049.88;5053610;28;1707;-26
2023/03/08 07:15:28;;;;;;;;;;;;;;;25.97;25.61;100051.25;5055936;28;1226;-26
2023/03/08 07:17:54;;;;;;;;;;;;;;;25.98;25.43;100054.75;5056291;28;1163;-26
2023/03/08 07:20:20;;;;;;;;;;;;;;;26.01;25.69;100055.22;5054862;28;1976;-30
2023/03/08 07:22:46;;;;;;;;;;;;;;;25.98;25.60;100047.50;5044662;28;859;-26
2023/03/08 07:25:12;;;;;;;;;;;;;;;26.01;25.37;100062.44;5049979;28;1025;-25
2023/03/08 07:27:37;;;;;;;;;;;;;;;25.97;25.58;100064.72;5045366;28;1207;-26
2023/03/08 07:30:03;;;;;;;;;;;;;;;25.98;25.75;100063.69;5050683;28;1152;-26
2023/03/08 07:32:29;;;;;;;;;;;;;;;26.02;25.77;100064.13;5056098;28;1179;-23
2023/03/08 07:34:55;;;;;;;;;;;;;;;26.15;25.99;100063.41;5042574;28;915;-22
2023/03/08 07:37:20;;;;;;;;;;;;;;;26.26;25.42;100079.06;5037871;28;1365;-23
2023/03/08 07:39:46;;;;;;;;;;;;;;;26.26;25.38;100072.84;5042935;28;1914;-23
2023/03/08 07:42:11;;;;;;;;;;;;;;;26.29;25.22;100077.88;5057847;28;1016;-23
2023/03/08 07:44:37;;;;;;;;;;;;;;;26.32;25.25;100071.25;5041452;28;1198;-22
2023/03/08 07:47:06;;;;;;;;;;;;;;;26.32;25.24;100073.94;5046197;28;913;-23
2023/03/08 07:49:31;;;;;;;;;;;;;;;26.34;25.16;100075.44;5059862;28;1091;-23
2023/03/08 07:51:57;;;;;;;;;;;;;;;26.40;24.95;100071.13;5059611;28;1060;-23
2023/03/08 07:54:23;;;;;;;;;;;;;;;26.41;25.20;100068.25;5055079;28;1072;-23
2023/03/08 07:56:50;;;;;;;;;;;;;;;26.43;25.04;100068.03;5042684;28;1298;-23
2023/03/08 07:59:15;;;;;;;;;;;;;;;26.43;24.94;100068.03;5049608;28;1981;-23
2023/03/08 08:01:41;;;;;;;;;;;;;;;26.46;25.09;100074.94;5039640;28;1248;-23
2023/03/08 08:04:07;;;;;;;;;;;;;;;26.44;24.92;100076.97;5056159;28;1095;-23
2023/03/08 08:06:34;;;;;;;;;;;;;;;26.46;24.99;100072.22;5059584;28;1144;-23
2023/03/08 08:08:59;;;;;;;;;;;;;;;26.48;25.07;100073.69;5059357;28;997;-23
2023/03/08 08:11:25;;;;;;;;;;;;;;;26.48;25.05;100075.53;5048149;28;868;-22
2023/03/08 08:13:51;;;;;;;;;;;;;;;26.50;24.98;100071.63;5056733;28;1072;-22
2023/03/08 08:16:16;;;;;;;;;;;;;;;26.50;24.86;100068.94;5058973;28;1071;-23
2023/03/08 08:18:42;;;;;;;;;;;;;;;26.42;25.27;100063.69;5046007;28;1913;-22
2023/03/08 08:21:08;;;;;;;;;;;;;;;26.46;25.42;100062.25;5059250;28;1196;-22
2023/03/08 08:23:34;;;;;;;;;;;;;;;26.48;25.19;100062.91;5051845;28;971;-23
2023/03/08 08:25:59;;;;;;;;;;;;;;;26.54;25.16;100061.31;5054761;28;1366;-22
2023/03/08 08:28:25;;;;;;;;;;;;;;;26.59;25.08;100055.31;5058188;28;1171;-21
2023/03/08 08:30:57;;;;;;;;;;;;;;;26.59;25.13;100056.13;5055213;28;988;-45
2023/03/08 08:33:23;;;;;;;;;;;;;;;26.54;24.88;100053.22;5048659;28;1060;-46
2023/03/08 08:35:48;;;;;;;;;;;;;;;26.58;25.31;100051.78;5044825;28;877;-46
2023/03/08 08:38:14;;;;;;;;;;;;;;;26.57;24.76;100057.34;5058805;28;1154;-47
2023/03/08 08:40:40;;;;;;;;;;;;;;;26.57;25.15;100052.81;5058695;28;1902;-45
2023/03/08 08:43:05;;;;;;;;;;;;;;;26.56;25.30;100051.13;5058688;28;1167;-46
2023/03/08 08:45:31;;;;;;;;;;;;;;;26.56;25.03;100055.72;5058062;28;1043;-46
2023/03/08 08:47:56;;;;;;;;;;;;;;;26.56;24.83;100045.72;5058171;28;973;-46
2023/03/08 08:50:22;;;;;;;;;;;;;;;26.62;24.78;100041.44;5045427;28;1009;-46
2023/03/08 08:52:47;;;;;;;;;;;;;;;26.64;24.91;100033.97;5058195;28;1047;-47
2023/03/08 08:55:13;;;;;;;;;;;;;;;26.64;24.90;100036.69;5039371;28;1104;-23
2023/03/08 08:57:38;;;;;;;;;;;;;;;26.71;25.10;100034.03;5068717;28;1071;-23
2023/03/08 09:00:07;;;;;;;;;;;;;;;26.72;24.71;100035.69;5057565;28;1973;-23
2023/03/08 09:02:33;;;;;;;;;;;;;;;26.71;25.12;100034.03;5057992;28;1011;-23
2023/03/08 09:04:58;;;;;;;;;;;;;;;26.73;25.01;100032.78;5055325;28;1052;-23
2023/03/08 09:07:24;;;;;;;;;;;;;;;26.76;24.92;100032.38;5047054;28;1016;-23
2023/03/08 09:09:49;;;;;;;;;;;;;;;26.78;24.64;100024.94;5048424;28;1055;-23
2023/03/08 09:12:15;;;;;;;;;;;;;;;26.83;24.63;100027.03;5057195;28;875;-22
2023/03/08 09:14:40;;;;;;;;;;;;;;;26.84;24.79;100025.16;5058147;28;1036;-23
2023/03/08 09:17:06;;;;;;;;;;;;;;;26.85;24.98;100016.03;5039477;28;1129;-23
2023/03/08 09:19:32;;;;;;;;;;;;;;;26.84;24.74;100019.78;5057609;28;1976;-23
2023/03/08 09:21:57;;;;;;;;;;;;;;;26.86;24.59;100023.13;5039440;28;1496;-23
2023/03/08 09:24:23;;;;;;;;;;;;;;;27.03;24.90;100023.63;5057633;28;939;-22
2023/03/08 09:26:48;;;;;;;;;;;;;;;27.05;24.45;100018.03;5055461;28;1502;-23
2023/03/08 09:29:14;;;;;;;;;;;;;;;27.00;24.67;100026.69;5045693;28;1031;-22
2023/03/08 09:31:41;;;;;;;;;;;;;;;26.93;24.59;100026.66;5056485;28;925;-22
2023/03/08 09:34:09;;;;;;;;;;;;;;;26.88;25.02;100026.41;5057356;28;1031;-22
2023/03/08 09:36:35;;;;;;;;;;;;;;;26.83;25.02;100027.03;5039573;28;1132;-23
2023/03/08 09:39:01;;;;;;;;;;;;;;;26.81;24.95;100023.69;5057708;28;1902;-22
2023/03/08 09:41:33;;;;;;;;;;;;;;;26.82;24.92;100024.53;5057703;28;1068;-21
2023/03/08 09:45:02;;;;;;;;;;;;;;;26.72;24.75;100023.03;5093660;28;1356;-28
2023/03/08 09:47:31;;;;;;;;;;;;;;;26.89;24.78;100020.81;5079488;28;1189;-30
2023/03/08 09:50:03;;;;;;;;;;;;;;;26.90;24.82;100018.97;5092333;28;1157;-29
2023/03/08 09:52:57;;;;;;;;;;;;;;;26.82;24.69;100014.56;5092406;28;1149;-29
2023/03/08 09:55:29;;;;;;;;;;;;;;;26.89;24.93;100014.63;5080576;28;1223;-28
2023/03/08 09:57:59;;;;;;;;;;;;;;;26.88;24.83;100005.69;5086435;28;1205;-28
2023/03/08 10:00:31;;;;;;;;;;;;;;;26.91;24.55;100015.22;5085232;28;1031;-27
2023/03/08 10:03:16;;;;;;;;;;;;;;;26.90;24.47;100006.31;5086919;28;1972;-27
2023/03/08 10:05:44;;;;;;;;;;;;;;;26.92;24.70;100010.66;5075389;28;1019;-31
2023/03/08 10:08:15;;;;;;;;;;;;;;;26.84;24.90;100000.88;5083393;28;1173;-19
2023/03/08 10:10:40;;;;;;;;;;;;;;;26.85;24.84;100000.69;5088297;28;1151;-19
2023/03/08 10:13:12;;;;;;;;;;;;;;;26.95;24.77;99997.63;5082330;28;1113;-19
2023/03/08 10:15:39;;;;;;;;;;;;;;;26.95;24.95;99992.22;5056022;28;1202;-19
2023/03/08 10:18:08;;;;;;;;;;;;;;;27.13;24.77;99989.00;5058156;28;1339;-20
2023/03/08 10:20:34;;;;;;;;;;;;;;;27.12;24.37;99987.34;5092143;28;1190;-19
2023/03/08 10:23:26;;;;;;;;;;;;;;;27.09;24.58;99984.22;5090263;28;1970;-19
2023/03/08 10:25:52;;;;;;;;;;;;;;;27.08;24.59;99987.94;5083033;28;1829;-19
2023/03/08 10:28:19;;;;;;;;;;;;;;;27.10;24.44;99975.91;5092184;28;1073;-20
2023/03/08 10:30:47;;;;;;;;;;;;;;;27.12;24.56;99978.41;5079972;28;1098;-19
2023/03/08 10:33:14;;;;;;;;;;;;;;;27.08;24.63;99977.13;5079154;28;999;-18
2023/03/08 10:35:52;;;;;;;;;;;;;;;26.97;24.48;99975.81;5082503;28;1039;-18
2023/03/08 10:38:18;;;;;;;;;;;;;;;27.09;24.49;99968.81;5080760;28;1127;-19
2023/03/08 10:40:43;;;;;;;;;;;;;;;27.13;24.65;99971.97;5073849;28;1487;-19
2023/03/08 10:43:14;;;;;;;;;;;;;;;27.16;24.58;99970.75;5078370;28;1909;-18
2023/03/08 10:45:39;;;;;;;;;;;;;;;27.12;24.73;99970.31;5074096;28;1524;-18
2023/03/08 10:48:05;;;;;;;;;;;;;;;27.08;24.60;99964.47;5091478;28;1002;-19
2023/03/08 10:50:35;;;;;;;;;;;;;;;27.17;24.65;99973.25;5102842;28;1421;-19
2023/03/08 10:53:30;;;;;;;;;;;;;;;27.10;24.71;99969.66;5094083;28;1117;-19
2023/03/08 10:55:56;;;;;;;;;;;;;;;27.10;24.74;99958.88;5098228;28;1007;-19
2023/03/08 10:58:40;;;;;;;;;;;;;;;27.08;24.80;99963.63;5072277;28;1201;-19
2023/03/08 11:01:08;;;;;;;;;;;;;;;27.13;24.76;99959.31;5083105;28;960;-19
2023/03/08 11:03:33;;;;;;;;;;;;;;;27.32;24.32;99956.88;5069524;28;1902;-18
2023/03/08 11:06:17;;;;;;;;;;;;;;;27.24;24.45;99954.38;5073904;28;1154;-18
2023/03/08 11:08:53;;;;;;;;;;;;;;;27.23;24.63;99950.81;5074666;28;1146;-18
2023/03/08 11:11:19;;;;;;;;;;;;;;;27.18;24.74;99953.28;5091285;28;1057;-19
2023/03/08 11:13:48;;;;;;;;;;;;;;;27.10;24.64;99951.63;5091858;28;1469;-18
2023/03/08 11:16:13;;;;;;;;;;;;;;;27.14;24.78;99946.66;5078237;28;999;-18
2023/03/08 11:18:54;;;;;;;;;;;;;;;27.02;24.58;99931.03;5078406;28;1105;-22
2023/03/08 11:21:49;;;;;;;;;;;;;;;27.11;24.37;99947.06;5079850;28;1154;-18
2023/03/08 11:24:38;;;;;;;;;;;;;;;27.23;24.74;99939.19;5075379;28;1979;-17
2023/03/08 11:27:22;;;;;;;;;;;;;;;27.13;24.73;99943.09;5065778;28;1442;-19
2023/03/08 11:29:55;;;;;;;;;;;;;;;27.32;24.29;99946.06;5074573;28;1082;-19
2023/03/08 11:32:42;;;;;;;;;;;;;;;27.20;24.76;99945.00;5053158;28;1277;-19
2023/03/08 11:35:08;;;;;;;;;;;;;;;27.24;24.34;99946.25;5079702;28;1086;-19
2023/03/08 11:37:41;;;;;;;;;;;;;;;27.29;24.56;99946.50;5088041;28;1293;-19
2023/03/08 11:40:22;;;;;;;;;;;;;;;27.22;24.52;99943.75;5072964;28;1068;-17
2023/03/08 11:43:02;;;;;;;;;;;;;;;27.20;24.35;99955.78;5064933;28;1902;-19
2023/03/08 11:45:36;;;;;;;;;;;;;;;27.19;24.63;99943.34;5041286;28;1163;-17
2023/03/08 11:48:20;;;;;;;;;;;;;;;27.25;24.29;99945.22;5049927;28;1219;-19
2023/03/08 11:50:52;;;;;;;;;;;;;;;27.28;24.37;99938.59;5061614;28;1006;-19
2023/03/08 11:53:22;;;;;;;;;;;;;;;27.28;24.33;99946.69;5061238;28;1151;-19
2023/03/08 11:55:54;;;;;;;;;;;;;;;27.22;24.41;99942.94;5079940;28;1129;-19
2023/03/08 11:58:40;;;;;;;;;;;;;;;27.18;24.42;99938.94;5097600;28;1045;-17
2023/03/08 12:01:08;;;;;;;;;;;;;;;27.07;24.84;99935.81;5080233;28;1251;-19
2023/03/08 12:03:36;;;;;;;;;;;;;;;27.04;24.78;99944.34;5059811;28;2038;-17
2023/03/08 12:06:21;;;;;;;;;;;;;;;26.99;24.70;99938.69;5072463;28;1120;-17
2023/03/08 12:08:52;;;;;;;;;;;;;;;26.93;24.96;99943.00;5075994;28;1074;-19
2023/03/08 12:11:19;;;;;;;;;;;;;;;26.99;24.96;99938.69;5076442;28;1058;-19
2023/03/08 12:13:52;;;;;;;;;;;;;;;26.99;24.71;99933.28;5087568;28;1062;-19
2023/03/08 12:16:24;;;;;;;;;;;;;;;26.94;24.76;99930.34;5079353;28;1130;-19
2023/03/08 12:18:52;;;;;;;;;;;;;;;26.92;25.02;99935.94;5071832;28;1183;-19
2023/03/08 12:21:23;;;;;;;;;;;;;;;26.87;25.11;99936.56;5093152;28;1201;-19
2023/03/08 12:24:08;;;;;;;;;;;;;;;26.83;24.75;99934.44;5070523;28;1974;-19
2023/03/08 12:26:35;;;;;;;;;;;;;;;26.91;24.94;99928.88;5068703;28;1082;-19
2023/03/08 12:29:10;;;;;;;;;;;;;;;26.95;24.70;99926.59;5060563;28;1191;-19
2023/03/08 12:31:37;;;;;;;;;;;;;;;27.07;24.56;99925.03;5079342;28;1122;-19
2023/03/08 12:34:10;;;;;;;;;;;;;;;27.11;24.81;99917.38;5050439;28;1182;-19
2023/03/08 12:36:37;;;;;;;;;;;;;;;27.08;24.91;99913.19;5079394;28;898;-19
2023/03/08 12:39:22;;;;;;;;;;;;;;;27.07;24.63;99925.03;5086804;28;1182;-20
2023/03/08 12:42:07;;;;;;;;;;;;;;;27.01;24.86;99915.00;5086246;28;1106;-20
2023/03/08 12:44:32;;;;;;;;;;;;;;;27.11;24.88;99917.38;5070745;28;1902;-19
2023/03/08 12:47:02;;;;;;;;;;;;;;;27.18;24.59;99914.66;5083145;28;1050;-19
2023/03/08 12:49:28;;;;;;;;;;;;;;;27.31;24.27;99913.88;5079790;28;880;-20
2023/03/08 12:51:57;;;;;;;;;;;;;;;27.32;24.13;99918.22;5096538;28;1051;-19
2023/03/08 12:54:23;;;;;;;;;;;;;;;27.22;24.22;99903.25;5096902;28;1098;-20
2023/03/08 12:56:49;;;;;;;;;;;;;;;27.26;24.49;99915.31;5095519;28;998;-19
2023/03/08 12:59:15;;;;;;;;;;;;;;;27.41;24.22;99910.78;5084307;28;1077;-20
2023/03/08 13:01:41;;;;;;;;;;;;;;;27.42;24.38;99912.44;5081729;28;909;-19